Almaty, Kazakhstan
Current Conditions -  °F | °C
As of 8:00 PM on Wednesday 22 Oct 2014 (Local Time) from UAAA Reporting Station
Smoke Smoke  
Wind Chill: 12°   Ceiling: 20000
Heat Index: 12°   Visibility: 0.62mi
Dew Point:   Wind: 0mph
Humidity: 77%   Direction: NA
Pressure: 30"   Gusts: NA
Location:  43.32°N, 76.92°E
Report Text: UAAA 221400Z 00000MPS 1000 R05L/P2000N R05R/P2000 BR FU SCT100BKN200 12/08 Q1016 R88/CLRD65 NOSIG
Loading
Personal Weather Stations






























Interactive Weather Map
Tropical Storm Tracking
New forecast layout! Learn more

10-Day Weather Forecast

Advertisements
Track Severe Weather on mobile